createdAt,value
2018-05-26T05:02:39.613Z,61.54
2018-05-26T05:05:12.983Z,61.54
2018-05-26T05:07:46.252Z,61.30
2018-05-26T05:10:20.296Z,61.30
2018-05-26T05:12:53.552Z,61.37
2018-05-26T05:15:26.869Z,61.46
2018-05-26T05:18:00.152Z,61.56
2018-05-26T05:20:33.446Z,61.44
2018-05-26T05:23:07.472Z,61.29
2018-05-26T05:25:42.001Z,61.47
2018-05-26T05:28:16.153Z,61.58
2018-05-26T05:30:50.863Z,61.82
2018-05-26T05:33:24.124Z,61.90
2018-05-26T05:35:57.403Z,61.59
2018-05-26T05:38:31.427Z,61.34
2018-05-26T05:41:05.492Z,60.98
2018-05-26T05:43:38.781Z,60.86
2018-05-26T05:46:12.147Z,60.77
2018-05-26T05:48:45.408Z,60.55
2018-05-26T05:51:18.700Z,60.31
2018-05-26T05:53:51.961Z,60.29
2018-05-26T05:56:25.265Z,60.25
2018-05-26T05:58:58.507Z,60.17
2018-05-26T06:01:32.548Z,60.21
2018-05-26T06:04:05.808Z,60.26
2018-05-26T06:06:39.122Z,60.31
2018-05-26T06:09:12.373Z,60.54
2018-05-26T06:11:49.952Z,60.34
2018-05-26T06:14:24.025Z,60.39
2018-05-26T06:16:57.327Z,60.24
2018-05-26T06:19:30.592Z,60.51
2018-05-26T06:22:03.872Z,60.82
2018-05-26T06:24:37.129Z,61.23
2018-05-26T06:27:12.341Z,61.22
2018-05-26T06:29:45.946Z,61.42
2018-05-26T06:32:19.219Z,61.20
2018-05-26T06:34:53.254Z,61.39
2018-05-26T06:37:26.543Z,61.47
2018-05-26T06:39:59.795Z,61.85
2018-05-26T06:42:33.080Z,61.52
2018-05-26T06:45:06.333Z,61.67
2018-05-26T06:47:39.615Z,61.55
2018-05-26T06:50:12.879Z,61.63
2018-05-26T06:52:46.927Z,61.74
2018-05-26T06:55:20.915Z,61.95
2018-05-26T06:57:54.956Z,61.95
2018-05-26T07:00:28.225Z,62.12
2018-05-26T07:03:02.263Z,62.38
2018-05-26T07:05:35.573Z,62.18
2018-05-26T07:08:09.570Z,62.24
2018-05-26T07:10:42.832Z,62.33
2018-05-26T07:13:16.109Z,62.03
2018-05-26T07:15:50.152Z,63.19
2018-05-26T07:18:24.156Z,63.32
2018-05-26T07:21:14.581Z,63.13
2018-05-26T07:23:47.859Z,63.08
2018-05-26T07:26:21.118Z,62.90
2018-05-26T07:28:55.179Z,62.97
2018-05-26T07:31:28.435Z,63.69
2018-05-26T07:34:03.781Z,63.36
2018-05-26T07:36:37.805Z,63.58
2018-05-26T07:39:11.084Z,64.29
2018-05-26T07:41:45.132Z,63.94
2018-05-26T07:44:19.404Z,63.49
2018-05-26T07:46:53.439Z,63.54
2018-05-26T07:49:26.720Z,63.49
2018-05-26T07:52:00.764Z,63.37
2018-05-26T07:54:34.048Z,62.50
2018-05-26T07:57:08.324Z,61.89
2018-05-26T07:59:41.584Z,61.77
2018-05-26T08:02:14.854Z,61.71
2018-05-26T08:04:48.107Z,61.67
2018-05-26T08:07:21.386Z,62.01
2018-05-26T08:09:54.646Z,62.34
2018-05-26T08:12:27.926Z,62.04
2018-05-26T08:15:01.176Z,61.96
2018-05-26T08:17:34.479Z,61.59
2018-05-26T08:20:08.421Z,61.67
2018-05-26T08:22:41.701Z,61.53
2018-05-26T08:25:15.729Z,60.64
2018-05-26T08:27:53.140Z,60.38
2018-05-26T08:30:26.399Z,60.49
2018-05-26T08:33:00.460Z,60.38
2018-05-26T08:35:33.716Z,59.93
2018-05-26T08:38:06.999Z,60.23
2018-05-26T08:40:40.243Z,60.97
2018-05-26T08:43:13.516Z,61.01
2018-05-26T08:45:46.771Z,60.84
2018-05-26T08:48:20.803Z,61.17
2018-05-26T08:50:54.068Z,60.61
2018-05-26T08:53:27.340Z,61.00
2018-05-26T08:56:00.605Z,60.82
2018-05-26T08:58:33.904Z,60.79
2018-05-26T09:01:07.166Z,60.67
2018-05-26T09:03:40.876Z,60.88
2018-05-26T09:06:14.132Z,61.03
2018-05-26T09:08:47.415Z,61.16
2018-05-26T09:11:20.686Z,61.06
2018-05-26T09:13:53.943Z,60.76
2018-05-26T09:16:27.212Z,60.48
2018-05-26T09:19:00.480Z,59.78
2018-05-26T09:21:33.739Z,60.18
2018-05-26T09:24:07.025Z,59.96
2018-05-26T09:26:41.179Z,59.88
2018-05-26T09:29:14.508Z,58.85
2018-05-26T09:31:47.772Z,57.96
2018-05-26T09:34:21.039Z,58.67
2018-05-26T09:36:54.292Z,58.34
2018-05-26T09:39:28.445Z,58.32
2018-05-26T09:42:01.704Z,58.58
2018-05-26T09:44:34.992Z,58.06
2018-05-26T09:47:08.248Z,57.54
2018-05-26T09:49:41.517Z,57.42
2018-05-26T09:52:14.771Z,57.00
2018-05-26T09:54:48.817Z,56.83
2018-05-26T09:57:22.077Z,55.90
2018-05-26T09:59:55.364Z,54.26
2018-05-26T10:02:29.551Z,53.50
2018-05-26T10:05:02.980Z,52.39
2018-05-26T10:07:37.161Z,53.48
2018-05-26T10:10:10.726Z,53.34
2018-05-26T10:12:44.105Z,53.63
2018-05-26T10:15:17.690Z,53.59
2018-05-26T10:17:51.049Z,52.18
2018-05-26T10:20:24.879Z,52.34
2018-05-26T10:22:58.239Z,51.24
2018-05-26T10:25:31.630Z,50.53
2018-05-26T10:28:05.055Z,51.30
2018-05-26T10:30:38.429Z,51.20
2018-05-26T10:33:11.872Z,50.90
2018-05-26T10:35:45.612Z,51.38
2018-05-26T10:38:19.339Z,51.00
2018-05-26T10:40:52.815Z,50.61
2018-05-26T10:43:27.152Z,49.26
2018-05-26T10:46:18.423Z,49.89
2018-05-26T10:48:51.692Z,47.84
2018-05-26T10:51:25.251Z,49.27
2018-05-26T10:53:58.509Z,49.13
2018-05-26T10:56:31.799Z,48.05
2018-05-26T10:59:05.072Z,47.64
2018-05-26T11:01:38.344Z,46.98
2018-05-26T11:04:11.635Z,45.60
2018-05-26T11:06:48.203Z,45.02
2018-05-26T11:09:21.448Z,44.29
2018-05-26T11:11:54.727Z,44.67
2018-05-26T11:14:28.001Z,44.43
2018-05-26T11:17:01.366Z,45.04
2018-05-26T11:19:34.573Z,44.96
2018-05-26T11:22:07.879Z,44.12
2018-05-26T11:24:41.213Z,44.57
2018-05-26T11:27:15.571Z,44.98
2018-05-26T11:29:48.850Z,44.32
2018-05-26T11:32:22.898Z,44.40
2018-05-26T11:34:56.156Z,44.49
2018-05-26T11:37:30.201Z,44.16
2018-05-26T11:40:03.465Z,44.13
2018-05-26T11:42:37.717Z,44.56
2018-05-26T11:45:10.968Z,45.18
2018-05-26T11:47:45.022Z,45.89
2018-05-26T11:50:19.024Z,45.26
2018-05-26T11:52:52.336Z,44.99
2018-05-26T11:55:25.600Z,43.55
2018-05-26T11:57:59.723Z,42.83
2018-05-26T12:00:32.975Z,42.45
2018-05-26T12:03:06.252Z,42.15
2018-05-26T12:05:39.517Z,41.66
2018-05-26T12:08:12.799Z,41.43
2018-05-26T12:10:46.108Z,42.52
2018-05-26T12:13:19.332Z,41.44
2018-05-26T12:15:52.589Z,40.47
2018-05-26T12:18:25.860Z,40.88
2018-05-26T12:20:59.123Z,40.25
2018-05-26T12:23:32.556Z,40.47
2018-05-26T12:26:05.816Z,39.81
2018-05-26T12:28:40.024Z,39.15
2018-05-26T12:31:13.271Z,39.86
2018-05-26T12:33:46.556Z,39.76
2018-05-26T12:36:21.419Z,38.92
2018-05-26T12:38:54.700Z,38.90
2018-05-26T12:41:30.652Z,38.83
2018-05-26T12:44:03.939Z,38.70
2018-05-26T12:46:37.193Z,39.32
2018-05-26T12:49:11.248Z,39.33
2018-05-26T12:51:44.506Z,38.84
2018-05-26T12:54:18.562Z,37.70
2018-05-26T12:56:51.823Z,38.80
2018-05-26T12:59:26.044Z,37.93
2018-05-26T13:02:00.647Z,38.10
2018-05-26T13:04:33.926Z,38.30
2018-05-26T13:07:07.184Z,37.63
2018-05-26T13:09:41.787Z,37.79
2018-05-26T13:12:15.809Z,37.13
2018-05-26T13:14:50.032Z,36.73
2018-05-26T13:17:23.280Z,37.00
2018-05-26T13:19:56.547Z,35.16
2018-05-26T13:22:29.821Z,35.02
2018-05-26T13:25:03.288Z,34.27
2018-05-26T13:27:36.551Z,34.35
2018-05-26T13:30:10.084Z,34.29
2018-05-26T13:32:44.112Z,33.29
2018-05-26T13:35:17.603Z,32.81
2018-05-26T13:37:51.637Z,33.33
2018-05-26T13:40:24.936Z,32.50
2018-05-26T13:42:58.200Z,32.07
2018-05-26T13:45:31.495Z,31.64
2018-05-26T13:48:05.691Z,30.83
2018-05-26T13:50:39.788Z,30.00
2018-05-26T13:53:13.170Z,29.94
2018-05-26T13:55:46.367Z,29.94
2018-05-26T13:58:19.620Z,29.35
2018-05-26T14:00:52.888Z,28.69
2018-05-26T14:03:26.914Z,27.59
2018-05-26T14:06:00.399Z,28.97
2018-05-26T14:08:33.816Z,28.78
2018-05-26T14:11:07.128Z,28.95
2018-05-26T14:13:40.555Z,28.61
2018-05-26T14:16:14.029Z,28.13
2018-05-26T14:18:47.439Z,28.04
2018-05-26T14:21:21.657Z,27.75
2018-05-26T14:23:55.048Z,27.79
2018-05-26T14:26:28.330Z,26.28
2018-05-26T14:29:01.591Z,26.77
2018-05-26T14:31:34.891Z,26.52
2018-05-26T14:34:08.148Z,26.36
2018-05-26T14:36:41.415Z,26.79
2018-05-26T14:39:14.684Z,28.13
2018-05-26T14:41:48.032Z,27.30
2018-05-26T14:44:21.306Z,27.66
2018-05-26T14:46:54.583Z,27.16
2018-05-26T14:49:27.839Z,27.34
2018-05-26T14:52:01.898Z,27.09
2018-05-26T14:54:35.175Z,26.75
2018-05-26T14:57:08.459Z,27.18
2018-05-26T14:59:41.721Z,27.37
2018-05-26T15:02:15.068Z,26.78
2018-05-26T15:04:48.517Z,26.51
2018-05-26T15:07:21.842Z,26.23
2018-05-26T15:09:55.836Z,25.86
2018-05-26T15:12:29.114Z,26.19
2018-05-26T15:15:03.137Z,26.30
2018-05-26T15:17:37.460Z,26.45
2018-05-26T15:20:10.727Z,26.28
2018-05-26T15:22:44.079Z,26.02
2018-05-26T15:25:17.283Z,25.80
2018-05-26T15:27:50.750Z,25.52
2018-05-26T15:30:24.017Z,26.20
2018-05-26T15:32:58.057Z,25.49
2018-05-26T15:35:31.324Z,25.31
2018-05-26T15:38:05.354Z,25.57
2018-05-26T15:40:38.639Z,25.08
2018-05-26T15:43:11.928Z,26.10
2018-05-26T15:45:45.200Z,26.48
2018-05-26T15:48:18.485Z,25.39
2018-05-26T15:50:51.759Z,24.48
2018-05-26T15:53:25.064Z,25.22
2018-05-26T15:55:58.316Z,25.03
2018-05-26T15:58:31.596Z,26.48
2018-05-26T16:01:05.616Z,25.51
2018-05-26T16:03:38.887Z,24.87
2018-05-26T16:06:12.913Z,24.90
2018-05-26T16:08:46.199Z,24.26
2018-05-26T16:11:19.452Z,23.97
2018-05-26T16:13:52.739Z,23.34
2018-05-26T16:16:25.990Z,23.01
2018-05-26T16:18:59.288Z,22.83
2018-05-26T16:21:32.536Z,22.15
2018-05-26T16:24:05.810Z,21.71
2018-05-26T16:26:39.220Z,21.38
2018-05-26T16:29:12.510Z,21.60
2018-05-26T16:31:45.768Z,22.82
2018-05-26T16:34:19.060Z,24.21
2018-05-26T16:36:53.078Z,24.86
2018-05-26T16:39:26.359Z,25.25
2018-05-26T16:42:00.406Z,24.51
2018-05-26T16:44:33.732Z,24.89
2018-05-26T16:47:07.167Z,25.58
2018-05-26T16:49:40.452Z,25.65
2018-05-26T16:52:14.718Z,25.63
2018-05-26T16:54:48.004Z,25.76
2018-05-26T16:57:21.268Z,26.36
2018-05-26T16:59:54.563Z,26.40
2018-05-26T17:02:27.830Z,26.64
2018-05-26T17:05:01.107Z,27.10
2018-05-26T17:07:34.366Z,27.44
2018-05-26T17:10:07.648Z,28.11
2018-05-26T17:12:40.912Z,28.58
2018-05-26T17:15:14.975Z,28.72
2018-05-26T17:17:48.275Z,29.04
2018-05-26T17:20:21.559Z,29.32
2018-05-26T17:22:54.845Z,30.12
2018-05-26T17:25:28.125Z,30.00
2018-05-26T17:28:01.387Z,30.15
2018-05-26T17:30:34.792Z,30.13
2018-05-26T17:33:09.104Z,30.54
2018-05-26T17:35:42.376Z,31.04
2018-05-26T17:38:15.631Z,31.33
2018-05-26T17:40:48.904Z,31.42
2018-05-26T17:43:22.948Z,31.40
2018-05-26T17:45:56.203Z,31.28
2018-05-26T17:48:30.268Z,31.42
2018-05-26T17:51:03.540Z,31.57
2018-05-26T17:53:36.796Z,31.78
2018-05-26T17:56:10.840Z,32.28
2018-05-26T17:58:44.096Z,32.48
2018-05-26T18:01:17.388Z,32.62
2018-05-26T18:03:50.672Z,32.93
2018-05-26T18:06:23.940Z,33.03
2018-05-26T18:08:57.220Z,32.95
2018-05-26T18:11:30.571Z,32.96
2018-05-26T18:14:03.846Z,33.08
2018-05-26T18:16:37.103Z,33.26
2018-05-26T18:19:10.377Z,33.25
2018-05-26T18:21:44.393Z,33.27
2018-05-26T18:24:17.675Z,33.39
2018-05-26T18:26:51.704Z,33.42
2018-05-26T18:29:25.003Z,33.54
2018-05-26T18:31:58.253Z,33.64
2018-05-26T18:34:31.532Z,33.66
2018-05-26T18:37:05.593Z,33.72
2018-05-26T18:39:38.859Z,33.78
2018-05-26T18:42:12.895Z,34.09
2018-05-26T18:44:46.180Z,34.51
2018-05-26T18:47:19.431Z,34.72
2018-05-26T18:49:52.714Z,34.72
2018-05-26T18:52:25.981Z,34.75
2018-05-26T18:54:59.560Z,34.72
2018-05-26T18:57:33.595Z,34.56
2018-05-26T19:00:07.030Z,34.62
2018-05-26T19:02:40.282Z,34.79
2018-05-26T19:05:13.594Z,35.14
2018-05-26T19:07:47.055Z,35.33
2018-05-26T19:10:21.855Z,35.45
2018-05-26T19:12:55.112Z,35.92
2018-05-26T19:15:28.396Z,36.25
2018-05-26T19:18:01.660Z,36.44
2018-05-26T19:20:35.713Z,36.66
2018-05-26T19:23:08.952Z,36.99
2018-05-26T19:25:42.239Z,37.20
2018-05-26T19:28:15.487Z,37.46
2018-05-26T19:30:48.768Z,37.69
2018-05-26T19:33:22.032Z,38.15
2018-05-26T19:35:55.314Z,38.46
2018-05-26T19:38:28.564Z,38.75
2018-05-26T19:41:01.840Z,39.09
2018-05-26T19:43:35.100Z,39.22
2018-05-26T19:46:08.383Z,39.23
2018-05-26T19:48:42.763Z,39.23
2018-05-26T19:51:16.031Z,39.69
2018-05-26T19:53:49.288Z,39.82
2018-05-26T19:56:22.556Z,39.85
2018-05-26T19:58:55.833Z,39.80
2018-05-26T20:01:29.108Z,40.24
2018-05-26T20:04:02.383Z,40.45
2018-05-26T20:06:35.655Z,40.51
2018-05-26T20:09:08.905Z,41.04
2018-05-26T20:11:42.184Z,41.43
2018-05-26T20:14:16.209Z,41.73
2018-05-26T20:16:49.484Z,41.85
2018-05-26T20:19:23.541Z,41.77
2018-05-26T20:21:56.823Z,41.85
2018-05-26T20:24:30.195Z,42.53
2018-05-26T20:27:03.763Z,42.44
2018-05-26T20:29:37.012Z,42.43
2018-05-26T20:32:10.474Z,42.57
2018-05-26T20:34:43.891Z,43.34
2018-05-26T20:37:17.171Z,43.80
2018-05-26T20:39:51.191Z,44.15
2018-05-26T20:42:25.335Z,44.46
2018-05-26T20:44:58.593Z,44.70
2018-05-26T20:47:32.641Z,44.77
2018-05-26T20:50:05.947Z,44.90
2018-05-26T20:52:39.956Z,45.10
2018-05-26T20:55:13.226Z,45.50
2018-05-26T20:57:46.533Z,45.76
2018-05-26T21:00:19.822Z,46.24
2018-05-26T21:02:53.105Z,46.07
2018-05-26T21:05:26.368Z,46.21
2018-05-26T21:08:00.627Z,46.62
2018-05-26T21:10:33.875Z,46.85
2018-05-26T21:13:07.932Z,46.81
2018-05-26T21:15:41.204Z,47.23
2018-05-26T21:18:15.253Z,47.50
2018-05-26T21:20:48.506Z,48.12
2018-05-26T21:23:22.554Z,48.08
2018-05-26T21:25:55.811Z,48.05
2018-05-26T21:28:29.226Z,48.29
2018-05-26T21:31:02.476Z,48.74
2018-05-26T21:33:35.764Z,48.83
2018-05-26T21:36:09.017Z,48.95
2018-05-26T21:38:42.591Z,49.21
2018-05-26T21:41:15.864Z,49.38
2018-05-26T21:43:49.140Z,49.73
2018-05-26T21:46:22.402Z,49.94
2018-05-26T21:48:55.686Z,50.39
2018-05-26T21:51:28.944Z,50.52
2018-05-26T21:54:02.224Z,50.82
2018-05-26T21:56:35.489Z,51.04
2018-05-26T21:59:08.772Z,51.06
2018-05-26T22:01:42.024Z,51.05
2018-05-26T22:04:15.312Z,51.14
2018-05-26T22:06:48.572Z,51.06
2018-05-26T22:09:21.852Z,51.28
2018-05-26T22:11:55.100Z,51.31
2018-05-26T22:14:29.144Z,51.23
2018-05-26T22:17:02.397Z,51.53
2018-05-26T22:19:35.675Z,51.50
2018-05-26T22:22:08.940Z,51.65
2018-05-26T22:24:42.208Z,51.83
2018-05-26T22:27:15.464Z,52.06
2018-05-26T22:29:48.737Z,52.39
